createdAt,value
2023-02-16T00:01:27.014Z,60.90
2023-02-16T00:03:56.462Z,54.70
2023-02-16T00:06:25.225Z,58.53
2023-02-16T00:08:54.731Z,51.83
2023-02-16T00:11:42.735Z,52.30
2023-02-16T00:14:13.404Z,54.33
2023-02-16T00:16:42.271Z,50.93
2023-02-16T00:19:28.590Z,47.63
2023-02-16T00:21:58.528Z,46.87
2023-02-16T00:24:27.526Z,43.70
2023-02-16T00:26:55.992Z,41.43
2023-02-16T00:29:27.377Z,39.13
2023-02-16T00:31:56.233Z,40.00
2023-02-16T00:34:29.464Z,38.00
2023-02-16T00:36:58.715Z,39.13
2023-02-16T00:39:27.659Z,37.47
2023-02-16T00:41:57.563Z,36.27
2023-02-16T00:44:30.974Z,38.60
2023-02-16T00:47:00.936Z,40.23
2023-02-16T00:49:29.308Z,38.57
2023-02-16T00:51:57.784Z,37.53
2023-02-16T00:54:26.349Z,41.37
2023-02-16T00:56:54.934Z,39.37
2023-02-16T00:59:24.602Z,40.70
2023-02-16T01:01:54.495Z,42.57
2023-02-16T01:04:24.815Z,44.60
2023-02-16T01:07:10.790Z,42.27
2023-02-16T01:09:58.853Z,46.70
2023-02-16T01:12:27.276Z,44.43
2023-02-16T01:14:57.055Z,49.27
2023-02-16T01:17:27.033Z,46.70
2023-02-16T01:19:55.753Z,49.97
2023-02-16T01:22:24.314Z,51.40
2023-02-16T01:24:52.690Z,51.77
2023-02-16T01:27:21.094Z,50.77
2023-02-16T01:29:49.509Z,50.67
2023-02-16T01:32:18.046Z,50.60
2023-02-16T01:34:47.963Z,48.03
2023-02-16T01:37:17.080Z,46.00
2023-02-16T01:39:45.488Z,47.57
2023-02-16T01:42:20.244Z,45.23
2023-02-16T01:44:50.095Z,46.83
2023-02-16T01:47:26.461Z,46.23
2023-02-16T01:49:56.275Z,47.30
2023-02-16T01:52:28.681Z,45.83
2023-02-16T01:54:59.730Z,48.17
2023-02-16T01:57:32.062Z,46.60
2023-02-16T02:00:05.742Z,47.53
2023-02-16T02:02:36.683Z,48.20
2023-02-16T02:05:38.957Z,46.20
2023-02-16T02:08:14.133Z,44.97
2023-02-16T02:10:47.331Z,47.43
2023-02-16T02:13:19.488Z,46.27
2023-02-16T02:15:47.890Z,53.63
2023-02-16T02:18:16.387Z,49.67
2023-02-16T02:21:10.111Z,49.70
2023-02-16T02:23:45.056Z,51.10
2023-02-16T02:26:28.316Z,49.17
2023-02-16T02:29:04.192Z,53.47
2023-02-16T02:31:38.658Z,56.90
2023-02-16T02:34:12.406Z,52.03
2023-02-16T02:36:43.865Z,52.30
2023-02-16T02:39:17.368Z,53.03
2023-02-16T02:42:07.940Z,50.30
2023-02-16T02:44:39.718Z,54.77
2023-02-16T02:47:08.134Z,52.80
2023-02-16T02:49:36.516Z,49.37
2023-02-16T02:52:05.127Z,53.80
2023-02-16T02:54:53.943Z,52.00
2023-02-16T02:57:42.969Z,52.77
2023-02-16T03:00:33.002Z,51.43
2023-02-16T03:03:03.936Z,50.00
2023-02-16T03:05:33.365Z,49.73
2023-02-16T03:08:14.295Z,53.70
2023-02-16T03:11:02.185Z,53.97
2023-02-16T03:13:33.635Z,52.57
2023-02-16T03:16:05.578Z,53.53
2023-02-16T03:18:52.841Z,54.47
2023-02-16T03:21:38.875Z,52.60
2023-02-16T03:24:27.846Z,48.80
2023-02-16T03:27:14.319Z,51.10
2023-02-16T03:29:42.838Z,52.37
2023-02-16T03:32:12.673Z,51.93
2023-02-16T03:34:41.307Z,55.00
2023-02-16T03:37:09.780Z,55.50
2023-02-16T03:40:05.927Z,53.40
2023-02-16T03:42:34.334Z,50.47
2023-02-16T03:45:02.791Z,53.97
2023-02-16T03:47:32.635Z,55.00
2023-02-16T03:50:01.065Z,52.27
2023-02-16T03:52:29.470Z,54.50
2023-02-16T03:54:57.894Z,49.90
2023-02-16T03:57:26.473Z,53.70
2023-02-16T03:59:55.825Z,50.93
2023-02-16T04:02:25.472Z,50.00
2023-02-16T04:04:55.285Z,50.87
2023-02-16T04:07:23.733Z,48.63
2023-02-16T04:09:52.142Z,54.17
2023-02-16T04:12:38.729Z,49.73
2023-02-16T04:15:08.554Z,51.00
2023-02-16T04:17:37.372Z,50.30
2023-02-16T04:20:08.186Z,50.63
2023-02-16T04:22:36.590Z,56.53
2023-02-16T04:25:05.115Z,54.57
2023-02-16T04:27:33.537Z,56.70
2023-02-16T04:30:02.128Z,54.93
2023-02-16T04:32:30.574Z,62.97
2023-02-16T04:34:58.967Z,64.47
2023-02-16T04:37:28.768Z,65.20
2023-02-16T04:39:57.164Z,72.57
2023-02-16T04:42:25.592Z,67.93
2023-02-16T04:44:54.404Z,67.90
2023-02-16T04:47:25.826Z,69.93
2023-02-16T04:49:54.471Z,63.97
2023-02-16T04:52:22.868Z,74.67
2023-02-16T04:54:52.817Z,76.43
2023-02-16T04:57:22.613Z,70.10
2023-02-16T04:59:51.061Z,75.57
2023-02-16T05:02:19.479Z,89.17
2023-02-16T05:04:48.309Z,83.90
2023-02-16T05:07:16.767Z,87.73
2023-02-16T05:09:45.166Z,81.23
2023-02-16T05:12:32.733Z,93.93
2023-02-16T05:15:01.113Z,89.20
2023-02-16T05:17:29.566Z,90.03
2023-02-16T05:19:59.250Z,88.43
2023-02-16T05:22:28.642Z,91.63
2023-02-16T05:24:57.027Z,93.80
2023-02-16T05:27:27.581Z,95.90
2023-02-16T05:29:56.240Z,97.47
2023-02-16T05:32:24.694Z,95.53
2023-02-16T05:34:53.189Z,100.00
2023-02-16T05:37:21.650Z,107.90
2023-02-16T05:39:50.065Z,110.33
2023-02-16T05:42:18.470Z,108.77
2023-02-16T05:44:48.338Z,113.00
2023-02-16T05:47:16.794Z,115.50
2023-02-16T05:49:45.229Z,116.27
2023-02-16T05:52:13.624Z,117.33
2023-02-16T05:54:42.184Z,125.60
2023-02-16T05:57:11.851Z,123.87
2023-02-16T05:59:40.274Z,125.33
2023-02-16T06:02:10.694Z,115.43
2023-02-16T06:04:39.137Z,121.73
2023-02-16T06:07:07.535Z,109.13
2023-02-16T06:09:35.965Z,109.87
2023-02-16T06:12:04.415Z,115.67
2023-02-16T06:14:32.832Z,110.67
2023-02-16T06:17:01.502Z,108.27
2023-02-16T06:19:31.384Z,105.27
2023-02-16T06:21:59.829Z,105.87
2023-02-16T06:24:28.810Z,104.50
2023-02-16T06:26:57.484Z,97.93
2023-02-16T06:29:26.649Z,108.07
2023-02-16T06:31:55.241Z,101.90
2023-02-16T06:34:23.707Z,107.17
2023-02-16T06:36:53.664Z,103.50
2023-02-16T06:39:22.136Z,104.87
2023-02-16T06:41:50.564Z,105.17
2023-02-16T06:44:19.204Z,100.17
2023-02-16T06:46:49.008Z,105.57
2023-02-16T06:49:19.114Z,104.87
2023-02-16T06:51:48.187Z,101.43
2023-02-16T06:54:18.679Z,98.10
2023-02-16T06:56:47.110Z,100.53
2023-02-16T06:59:15.649Z,100.00
2023-02-16T07:01:45.507Z,94.57
2023-02-16T07:04:14.077Z,93.73
2023-02-16T07:06:42.864Z,99.10
2023-02-16T07:09:12.733Z,99.20
2023-02-16T07:11:42.735Z,117.53
2023-02-16T07:14:11.440Z,114.97
2023-02-16T07:16:39.921Z,116.77
2023-02-16T07:19:08.369Z,118.10
2023-02-16T07:21:36.757Z,118.83
2023-02-16T07:24:05.281Z,118.77
2023-02-16T07:26:33.816Z,115.67
2023-02-16T07:29:03.610Z,113.53
2023-02-16T07:31:32.137Z,113.47
2023-02-16T07:34:00.659Z,112.13
2023-02-16T07:36:29.072Z,111.87
2023-02-16T07:38:57.515Z,109.20
2023-02-16T07:41:25.939Z,108.07
2023-02-16T07:43:54.741Z,101.53
2023-02-16T07:46:24.478Z,102.50
2023-02-16T07:48:54.442Z,101.67
2023-02-16T07:51:23.737Z,103.23
2023-02-16T07:53:52.414Z,102.33
2023-02-16T07:56:21.623Z,105.70
2023-02-16T07:58:50.080Z,106.27
2023-02-16T08:01:18.660Z,108.17
2023-02-16T08:03:48.530Z,85.13
2023-02-16T08:06:17.048Z,64.03
2023-02-16T08:08:45.684Z,62.17
2023-02-16T08:11:17.562Z,85.73
2023-02-16T08:13:46.203Z,91.23
2023-02-16T08:16:16.118Z,100.40
2023-02-16T08:18:45.270Z,103.83
2023-02-16T08:21:15.882Z,106.37
2023-02-16T08:23:47.700Z,101.97
2023-02-16T08:26:17.170Z,93.53
2023-02-16T08:28:47.059Z,105.93
2023-02-16T08:31:15.706Z,98.13
2023-02-16T08:33:44.478Z,95.57
2023-02-16T08:36:19.714Z,97.53
2023-02-16T08:38:50.199Z,91.80
2023-02-16T08:41:18.892Z,90.10
2023-02-16T08:43:47.638Z,90.03
2023-02-16T08:46:16.193Z,85.20
2023-02-16T08:48:45.329Z,81.60
2023-02-16T08:51:15.483Z,83.20
2023-02-16T08:53:45.325Z,86.10
2023-02-16T08:56:14.306Z,84.87
2023-02-16T08:58:42.718Z,82.47
2023-02-16T09:01:11.829Z,83.50
2023-02-16T09:03:42.287Z,62.67
2023-02-16T09:06:12.248Z,48.47
2023-02-16T09:08:41.262Z,36.77
2023-02-16T09:11:13.144Z,63.30
2023-02-16T09:13:42.325Z,75.53
2023-02-16T09:16:12.062Z,74.50
2023-02-16T09:18:40.979Z,82.73
2023-02-16T09:21:11.333Z,83.30
2023-02-16T09:23:41.953Z,76.83
2023-02-16T09:26:13.261Z,84.33
2023-02-16T09:28:42.117Z,85.57
2023-02-16T09:31:11.614Z,83.00
2023-02-16T09:33:40.468Z,85.37
2023-02-16T09:36:09.863Z,96.30
2023-02-16T09:38:39.574Z,89.90
2023-02-16T09:41:10.611Z,70.80
2023-02-16T09:43:46.606Z,55.23
2023-02-16T09:46:16.021Z,94.47
2023-02-16T09:48:46.862Z,105.90
2023-02-16T09:51:20.941Z,123.77
2023-02-16T09:53:55.742Z,139.13
2023-02-16T09:56:28.648Z,157.53
2023-02-16T09:58:59.864Z,160.10
2023-02-16T10:01:33.744Z,177.03
2023-02-16T10:04:16.504Z,127.17
2023-02-16T10:06:52.538Z,146.03
2023-02-16T10:09:21.532Z,170.53
2023-02-16T10:11:54.570Z,175.17
2023-02-16T10:14:31.740Z,177.00
2023-02-16T10:17:03.624Z,196.37
2023-02-16T10:19:37.321Z,176.03
2023-02-16T10:22:08.378Z,120.07
2023-02-16T10:24:41.639Z,145.17
2023-02-16T10:27:13.436Z,175.03
2023-02-16T10:29:43.305Z,169.17
2023-02-16T10:32:16.714Z,163.20
2023-02-16T10:34:49.789Z,150.90
2023-02-16T10:37:33.893Z,138.50
2023-02-16T10:40:11.612Z,82.20
2023-02-16T10:42:43.981Z,115.13
2023-02-16T10:45:19.413Z,111.50
2023-02-16T10:47:48.506Z,111.47
2023-02-16T10:50:23.554Z,113.47
2023-02-16T10:52:53.224Z,111.23
2023-02-16T10:55:21.944Z,81.10
2023-02-16T10:57:53.146Z,93.83
2023-02-16T11:00:25.728Z,99.17
2023-02-16T11:02:54.334Z,102.47
2023-02-16T11:05:34.029Z,99.67
2023-02-16T11:08:03.051Z,95.63
2023-02-16T11:10:39.442Z,82.77
2023-02-16T11:13:09.039Z,90.80
2023-02-16T11:15:41.164Z,96.33
2023-02-16T11:18:11.531Z,105.10
2023-02-16T11:20:53.237Z,110.93
2023-02-16T11:23:25.454Z,110.77
2023-02-16T11:25:58.224Z,80.37
2023-02-16T11:28:32.667Z,101.97
2023-02-16T11:31:12.206Z,107.90
2023-02-16T11:33:41.537Z,119.80
2023-02-16T11:36:20.909Z,112.23
2023-02-16T11:38:57.700Z,88.17
2023-02-16T11:41:27.342Z,80.70
2023-02-16T11:43:56.075Z,91.87
2023-02-16T11:46:26.277Z,94.90
2023-02-16T11:48:54.988Z,96.17
2023-02-16T11:51:34.868Z,88.77
2023-02-16T11:54:04.611Z,73.17
2023-02-16T11:56:33.952Z,74.67
2023-02-16T11:59:10.079Z,82.30
2023-02-16T12:01:56.177Z,77.03
2023-02-16T12:04:34.799Z,86.30
2023-02-16T12:07:08.538Z,63.23
2023-02-16T12:09:41.818Z,64.90
2023-02-16T12:12:15.701Z,65.03
2023-02-16T12:14:49.464Z,69.27
2023-02-16T12:17:21.737Z,73.73
2023-02-16T12:19:57.813Z,79.40
2023-02-16T12:22:34.498Z,57.00
2023-02-16T12:25:18.806Z,71.30
2023-02-16T12:27:50.043Z,78.73
2023-02-16T12:30:23.771Z,78.57
2023-02-16T12:32:59.372Z,77.83
2023-02-16T12:35:39.002Z,65.40
2023-02-16T12:38:13.517Z,55.63
2023-02-16T12:40:48.482Z,71.17
2023-02-16T12:43:27.453Z,77.90
2023-02-16T12:45:57.942Z,78.57
2023-02-16T12:48:32.879Z,77.80
2023-02-16T12:51:04.408Z,56.37
2023-02-16T12:53:40.327Z,71.93
2023-02-16T12:56:11.639Z,79.00
2023-02-16T12:58:42.084Z,85.90
2023-02-16T13:01:14.668Z,83.50
2023-02-16T13:03:47.977Z,61.17
2023-02-16T13:06:21.152Z,75.30
2023-02-16T13:08:52.920Z,80.60
2023-02-16T13:11:23.643Z,84.07
2023-02-16T13:13:53.835Z,57.93
2023-02-16T13:16:30.546Z,65.40
2023-02-16T13:18:59.669Z,77.40
2023-02-16T13:21:51.210Z,80.67
2023-02-16T13:24:27.113Z,61.90
2023-02-16T13:27:01.934Z,67.83
2023-02-16T13:29:45.993Z,82.10
2023-02-16T13:32:23.681Z,79.10
2023-02-16T13:35:00.991Z,64.83
2023-02-16T13:37:36.246Z,71.90
2023-02-16T13:40:21.435Z,81.30
2023-02-16T13:43:12.550Z,85.80
2023-02-16T13:45:43.060Z,62.90
2023-02-16T13:48:16.125Z,71.23
2023-02-16T13:50:46.646Z,81.30
2023-02-16T13:53:20.074Z,85.37
2023-02-16T13:55:50.768Z,64.77
2023-02-16T13:58:29.369Z,68.50
2023-02-16T14:00:59.100Z,81.20
2023-02-16T14:03:38.768Z,83.67
2023-02-16T14:06:40.549Z,69.30
2023-02-16T14:09:42.087Z,71.70
2023-02-16T14:12:22.891Z,78.20
2023-02-16T14:15:00.200Z,82.87
2023-02-16T14:17:31.073Z,74.00
2023-02-16T14:20:00.785Z,62.70
2023-02-16T14:22:32.935Z,73.60
2023-02-16T14:25:02.505Z,77.83
2023-02-16T14:27:49.946Z,68.27
2023-02-16T14:30:22.320Z,69.23
2023-02-16T14:32:53.105Z,81.10
2023-02-16T14:35:22.992Z,84.73
2023-02-16T14:37:57.018Z,65.90
2023-02-16T14:40:40.681Z,76.03
2023-02-16T14:43:17.564Z,78.73
2023-02-16T14:46:06.984Z,72.60
2023-02-16T14:48:46.347Z,68.53
2023-02-16T14:51:34.315Z,75.60
2023-02-16T14:54:17.817Z,79.77
2023-02-16T14:56:47.100Z,63.83
2023-02-16T14:59:23.941Z,73.33
2023-02-16T15:01:52.568Z,75.07
2023-02-16T15:04:29.253Z,69.20
2023-02-16T15:06:58.185Z,64.47
2023-02-16T15:09:28.227Z,73.93
2023-02-16T15:12:15.376Z,77.83
2023-02-16T15:14:46.723Z,64.70
2023-02-16T15:17:20.720Z,64.63
2023-02-16T15:19:49.515Z,78.47
2023-02-16T15:22:22.093Z,77.00
2023-02-16T15:24:57.396Z,62.40
2023-02-16T15:27:26.608Z,73.67
2023-02-16T15:30:09.372Z,74.47
2023-02-16T15:32:37.909Z,71.97
2023-02-16T15:35:13.391Z,60.03
2023-02-16T15:37:41.832Z,66.50
2023-02-16T15:40:29.642Z,73.43
2023-02-16T15:43:02.795Z,67.57
2023-02-16T15:45:35.316Z,62.47
2023-02-16T15:48:23.993Z,72.17
2023-02-16T15:50:53.704Z,78.20
2023-02-16T15:53:26.513Z,67.17
2023-02-16T15:55:54.933Z,65.90
2023-02-16T15:58:23.356Z,73.53
2023-02-16T16:00:55.585Z,74.40
2023-02-16T16:03:24.032Z,63.20
2023-02-16T16:05:58.916Z,68.03
2023-02-16T16:08:28.356Z,76.73
2023-02-16T16:10:57.225Z,78.40
2023-02-16T16:13:27.466Z,63.63
2023-02-16T16:16:01.755Z,69.50
2023-02-16T16:18:43.341Z,76.67
2023-02-16T16:21:20.438Z,70.47
2023-02-16T16:23:59.840Z,69.07
2023-02-16T16:26:28.868Z,72.50
2023-02-16T16:28:57.325Z,80.80
2023-02-16T16:31:34.874Z,69.70
2023-02-16T16:34:04.658Z,73.47
2023-02-16T16:36:34.198Z,67.73
2023-02-16T16:39:20.476Z,74.70
2023-02-16T16:41:50.052Z,75.13
2023-02-16T16:44:32.420Z,74.73
2023-02-16T16:47:12.968Z,62.53
2023-02-16T16:49:53.569Z,74.13
2023-02-16T16:52:36.032Z,81.37
2023-02-16T16:55:17.177Z,83.83
2023-02-16T16:57:45.622Z,72.73
2023-02-16T17:00:14.583Z,65.37
2023-02-16T17:02:44.668Z,75.97
2023-02-16T17:05:13.402Z,78.83
2023-02-16T17:07:41.828Z,64.77
2023-02-16T17:10:10.863Z,55.20
2023-02-16T17:12:39.268Z,41.70
2023-02-16T17:15:08.107Z,41.90
2023-02-16T17:17:38.497Z,38.67
2023-02-16T17:20:15.531Z,49.27
2023-02-16T17:22:43.981Z,54.47
2023-02-16T17:25:12.487Z,57.93
2023-02-16T17:27:40.944Z,61.87
2023-02-16T17:30:11.117Z,66.13
2023-02-16T17:32:39.566Z,64.70
2023-02-16T17:35:08.308Z,64.57
2023-02-16T17:37:38.165Z,67.57
2023-02-16T17:40:07.154Z,68.57
2023-02-16T17:42:35.514Z,72.43
2023-02-16T17:45:03.975Z,68.87
2023-02-16T17:47:32.346Z,70.53
2023-02-16T17:50:00.772Z,79.50
2023-02-16T17:52:29.196Z,76.83
2023-02-16T17:54:59.012Z,76.63
2023-02-16T17:57:28.187Z,71.67
2023-02-16T17:59:56.923Z,73.77
2023-02-16T18:02:25.298Z,70.87
2023-02-16T18:04:54.316Z,74.37
2023-02-16T18:07:22.913Z,76.20
2023-02-16T18:09:51.394Z,78.83
2023-02-16T18:12:21.200Z,72.37
2023-02-16T18:14:49.642Z,76.33
2023-02-16T18:17:18.122Z,70.03
2023-02-16T18:19:46.610Z,75.17
2023-02-16T18:22:15.070Z,72.77
2023-02-16T18:24:44.487Z,73.10
2023-02-16T18:27:13.688Z,71.20
2023-02-16T18:29:43.537Z,73.63
2023-02-16T18:32:11.948Z,73.60
2023-02-16T18:34:40.349Z,72.17
2023-02-16T18:37:08.846Z,74.57
2023-02-16T18:39:37.219Z,75.80
2023-02-16T18:42:05.709Z,74.60
2023-02-16T18:44:35.182Z,78.03
2023-02-16T18:47:04.984Z,83.03
2023-02-16T18:49:33.490Z,83.17
2023-02-16T18:52:01.939Z,79.07
2023-02-16T18:54:30.349Z,80.73
2023-02-16T18:56:58.750Z,80.60
2023-02-16T18:59:27.188Z,79.73
2023-02-16T19:01:57.264Z,80.57
2023-02-16T19:04:28.125Z,79.23
2023-02-16T19:06:58.399Z,78.80
2023-02-16T19:09:27.145Z,76.23
2023-02-16T19:11:56.531Z,77.63
2023-02-16T19:14:25.241Z,72.10
2023-02-16T19:16:53.706Z,79.63
2023-02-16T19:19:22.302Z,75.07
2023-02-16T19:21:52.136Z,77.83
2023-02-16T19:24:20.547Z,73.03
2023-02-16T19:26:49.023Z,78.33
2023-02-16T19:29:17.458Z,78.70
2023-02-16T19:31:47.586Z,77.40
2023-02-16T19:34:17.017Z,75.87
2023-02-16T19:36:45.521Z,76.50
2023-02-16T19:39:15.331Z,80.97
2023-02-16T19:41:44.729Z,81.43
2023-02-16T19:44:14.330Z,79.67
2023-02-16T19:46:43.147Z,75.67
2023-02-16T19:49:14.546Z,83.20
2023-02-16T19:51:42.992Z,76.80
2023-02-16T19:54:11.406Z,76.90
2023-02-16T19:56:41.477Z,79.33
2023-02-16T19:59:10.450Z,82.60
2023-02-16T20:01:39.114Z,78.53
2023-02-16T20:04:07.603Z,79.57
2023-02-16T20:06:39.228Z,81.47
2023-02-16T20:09:07.688Z,78.70
2023-02-16T20:11:36.468Z,81.50
2023-02-16T20:14:06.356Z,80.53
2023-02-16T20:16:34.860Z,80.20
2023-02-16T20:19:03.540Z,93.03
2023-02-16T20:21:31.941Z,91.90
2023-02-16T20:24:01.830Z,93.60
2023-02-16T20:26:33.637Z,91.57
2023-02-16T20:29:02.573Z,94.47
2023-02-16T20:31:33.901Z,95.40
2023-02-16T20:34:03.455Z,94.53
2023-02-16T20:36:32.337Z,92.13
2023-02-16T20:39:00.850Z,92.50
2023-02-16T20:41:29.390Z,89.67
2023-02-16T20:43:57.796Z,84.93
2023-02-16T20:46:26.331Z,85.57
2023-02-16T20:48:56.165Z,94.20
2023-02-16T20:51:24.609Z,88.10
2023-02-16T20:53:53.127Z,89.97
2023-02-16T20:56:22.411Z,91.10
2023-02-16T20:58:52.453Z,87.00
2023-02-16T21:01:22.210Z,89.97
2023-02-16T21:03:50.928Z,90.03
2023-02-16T21:06:21.132Z,95.47
2023-02-16T21:08:49.606Z,94.90
2023-02-16T21:11:18.027Z,97.80
2023-02-16T21:13:46.904Z,106.03
2023-02-16T21:16:15.468Z,114.43
2023-02-16T21:18:44.044Z,115.23
2023-02-16T21:21:15.644Z,111.07
2023-02-16T21:23:47.111Z,113.90
2023-02-16T21:26:16.009Z,117.30
2023-02-16T21:28:44.465Z,119.37
2023-02-16T21:31:14.875Z,124.77
2023-02-16T21:33:43.333Z,129.07
2023-02-16T21:36:13.330Z,122.60
2023-02-16T21:38:42.141Z,132.90
2023-02-16T21:41:26.729Z,128.13
2023-02-16T21:43:56.026Z,141.60
2023-02-16T21:46:24.697Z,139.83
2023-02-16T21:48:52.119Z,161.23
2023-02-16T21:51:21.631Z,163.07
2023-02-16T21:53:50.313Z,162.03
2023-02-16T21:56:35.606Z,164.23
2023-02-16T21:59:06.152Z,171.13
2023-02-16T22:01:36.198Z,186.90
2023-02-16T22:04:04.806Z,204.30
2023-02-16T22:06:34.214Z,210.90
2023-02-16T22:09:03.071Z,212.00
2023-02-16T22:11:31.481Z,204.83
2023-02-16T22:14:00.782Z,197.57
2023-02-16T22:16:31.796Z,219.97
2023-02-16T22:19:01.182Z,229.70
2023-02-16T22:21:30.112Z,245.00
2023-02-16T22:24:00.990Z,229.23
2023-02-16T22:26:30.566Z,218.70
2023-02-16T22:28:59.309Z,214.97
2023-02-16T22:31:28.885Z,206.77
2023-02-16T22:33:59.434Z,215.00
2023-02-16T22:36:28.000Z,210.00
2023-02-16T22:38:56.953Z,209.93
2023-02-16T22:41:25.791Z,210.43
2023-02-16T22:43:55.053Z,198.50
2023-02-16T22:46:24.503Z,215.67
2023-02-16T22:48:53.386Z,197.70
2023-02-16T22:51:23.338Z,189.67
2023-02-16T22:53:51.792Z,193.87
2023-02-16T22:56:21.202Z,191.80
2023-02-16T22:58:49.636Z,194.80
2023-02-16T23:01:19.199Z,182.90
2023-02-16T23:03:48.296Z,189.47
2023-02-16T23:06:17.526Z,179.87
2023-02-16T23:08:48.012Z,184.50
2023-02-16T23:11:16.395Z,188.73
2023-02-16T23:13:44.812Z,188.10
2023-02-16T23:16:14.177Z,187.53
2023-02-16T23:18:42.998Z,189.10
2023-02-16T23:21:12.591Z,199.17
2023-02-16T23:23:41.018Z,183.17
2023-02-16T23:26:10.803Z,192.67
2023-02-16T23:28:40.242Z,191.07
2023-02-16T23:31:09.042Z,191.27
2023-02-16T23:33:37.495Z,194.50
2023-02-16T23:36:06.479Z,201.97
2023-02-16T23:38:35.167Z,197.00
2023-02-16T23:41:05.323Z,189.87
2023-02-16T23:43:35.126Z,189.77
2023-02-16T23:46:03.746Z,187.57
2023-02-16T23:48:32.472Z,184.03
2023-02-16T23:51:00.904Z,174.00
2023-02-16T23:53:29.682Z,180.93
2023-02-16T23:55:58.617Z,173.40
2023-02-16T23:58:27.750Z,160.20
